Terminal Aerodrome Forecast
Issued by NWS Jacksonville, FL

Home | Current Version | Previous Version | Text Only | Print | Product List | Glossary On
Versions: 1 2 3 4 5 6 7 8 9 10 11 12 13 14 15 16 17 18 19 20 21 22 23 24 25 26 27 28 29 30 31 32 33 34 35 36 37 38 39 40 41 42 43 44 45 46 47 48
000
FTUS42 KJAX 281312 AAU
TAFSSI
TAF AMD
KSSI 281312Z 2813/2912 22008KT P6SM BKN010
     FM281430 20009KT P6SM FEW010 SCT025 BKN250
     FM281600 17009KT P6SM FEW035 BKN250
     FM281900 16008KT P6SM VCTS BKN040CB
     FM290300 19007KT P6SM FEW030 SCT100=

USA.gov is the U.S. government's official web portal to all federal, state and local government web resources and services.